Portada
METAR-TAF:

METAR-TAF

Aeroports :

Sussex Airport

Sussex, Nova Jersey, Estats Units d'Amèrica

latitud: 41-12-01N, longitud: 074-37-23W, altitud: 128 m

Observació

L'informe es va fer fa 32 minuts, a les 18:53 UTC
Vent 4 kt del Sud-Oest
Temperatura 23°C
Humitat 78%
Pressió 1010 hPa
Visibilitat: 16.1 km
Cel cobert a una alçada de 6000 ft

METAR: KFWN 161853Z AUTO 22004KT 10SM OVC060 23/19 A2983 RMK AO2 SLP096 T02330189

Hora: 15:25 (19:25 UTC)


TAF: manca

Observacions i pronòstics meteorològics de més de 4000 aeroports (METAR i TAF).

Les estacions disponibles són els punts grocs i vermells al mapa.

Posi el ratolí al punt desitjat per veure el nom de l'estació.

Feu clic per veure les observacions i els pronòstics meteorològics.

Per canviar el mapa: feu clic els botons verds amb una creu de color negre per apropar; al botó verd amb un guió per allunyar la imatge; o en les fletxes verdes per a mapes adjacents.


METAR-TAF: